Decoded Metar for VOTV (TRIVANDRUM in INDIA) (IATA:TRV) | Meteo·Mobile Aviation Weather
aviador You're here:

VOTV Decoded Metar

TRIVANDRUM in INDIA
Report Time2018-11-20 18:00:00
UTC Time2018-11-20 18:34:23
Flight Rules ifr IFR
WindCalm
Visibility4000 m
Phenomena:Haze
Clouds:Scattered 015 Hf
Scattered 080 Hf
Expected CloudBase > 800 ft AGL from Temp-Dew spread
CeilingNone
Temp28°C (ISA +13)
Dew Point26°C (89% RH)
Heat Index33.6°C
QNH1012 hPa
Density Alt2,001 ft
Elevation26 ft
Report Wrong Elevation
Raw Report
VOTV 201800Z 00000KT 4000 HZ SCT015 SCT080 28/26 Q1012 NOSIG=

Extra information for VOTV:More info

Metar Taf Metar & Taf Last 4 Metars F.Rules Stats Wind Profile Meteogram Temp Stats Airport Information Weather charts Add Link Nearby VenuesMetar ALERT Operation Metar Decoded Social comments